sensor_id;sensor_type;location;lat;lon;timestamp;pressure;altitude;pressure_sealevel;temperature;humidity
6567;BME280;3317;43.994;22.878;2022-08-21T00:02:00;100296.97;;;26.99;65.48
6567;BME280;3317;43.994;22.878;2022-08-21T00:04:27;100295.03;;;26.99;65.55
6567;BME280;3317;43.994;22.878;2022-08-21T00:06:56;100298.91;;;26.93;65.71
6567;BME280;3317;43.994;22.878;2022-08-21T00:09:22;100296.06;;;26.78;66.73
6567;BME280;3317;43.994;22.878;2022-08-21T00:11:50;100311.59;;;26.68;67.26
6567;BME280;3317;43.994;22.878;2022-08-21T00:14:17;100315.16;;;26.53;68.13
6567;BME280;3317;43.994;22.878;2022-08-21T00:16:44;100313.72;;;26.46;68.30
6567;BME280;3317;43.994;22.878;2022-08-21T00:19:11;100314.78;;;26.34;68.74
6567;BME280;3317;43.994;22.878;2022-08-21T00:21:38;100315.63;;;26.29;69.05
6567;BME280;3317;43.994;22.878;2022-08-21T00:24:08;100305.03;;;26.26;69.37
6567;BME280;3317;43.994;22.878;2022-08-21T00:26:35;100296.44;;;26.28;68.89
6567;BME280;3317;43.994;22.878;2022-08-21T00:29:02;100292.56;;;26.34;68.49
6567;BME280;3317;43.994;22.878;2022-08-21T00:31:29;100287.31;;;26.38;68.16
6567;BME280;3317;43.994;22.878;2022-08-21T00:33:56;100289.28;;;26.42;67.93
6567;BME280;3317;43.994;22.878;2022-08-21T00:36:23;100288.72;;;26.46;68.26
6567;BME280;3317;43.994;22.878;2022-08-21T00:38:50;100289.88;;;26.50;68.24
6567;BME280;3317;43.994;22.878;2022-08-21T00:41:18;100289.28;;;26.48;68.76
6567;BME280;3317;43.994;22.878;2022-08-21T00:43:45;100288.72;;;26.46;68.98
6567;BME280;3317;43.994;22.878;2022-08-21T00:46:12;100258.69;;;26.32;69.03
6567;BME280;3317;43.994;22.878;2022-08-21T00:48:41;100262.88;;;26.40;68.40
6567;BME280;3317;43.994;22.878;2022-08-21T00:51:15;100264.84;;;26.45;68.16
6567;BME280;3317;43.994;22.878;2022-08-21T00:53:49;100243.69;;;26.28;69.09
6567;BME280;3317;43.994;22.878;2022-08-21T00:56:21;100220.28;;;26.13;69.10
6567;BME280;3317;43.994;22.878;2022-08-21T00:58:52;100260.13;;;26.45;66.93
6567;BME280;3317;43.994;22.878;2022-08-21T01:01:20;100259.56;;;26.48;64.58
6567;BME280;3317;43.994;22.878;2022-08-21T01:03:47;100239.53;;;26.36;65.58
6567;BME280;3317;43.994;22.878;2022-08-21T01:06:15;100254.03;;;26.43;67.71
6567;BME280;3317;43.994;22.878;2022-08-21T01:08:42;100250.41;;;26.48;66.76
6567;BME280;3317;43.994;22.878;2022-08-21T01:11:09;100232.66;;;26.49;65.63
6567;BME280;3317;43.994;22.878;2022-08-21T01:13:38;100237.34;;;26.53;66.16
6567;BME280;3317;43.994;22.878;2022-08-21T01:16:13;100230.72;;;26.54;66.40
6567;BME280;3317;43.994;22.878;2022-08-21T01:18:42;100229.31;;;26.57;66.86
6567;BME280;3317;43.994;22.878;2022-08-21T01:21:12;100221.53;;;26.59;67.53
6567;BME280;3317;43.994;22.878;2022-08-21T01:23:42;100219.59;;;26.60;67.92
6567;BME280;3317;43.994;22.878;2022-08-21T01:26:11;100212.38;;;26.59;68.28
6567;BME280;3317;43.994;22.878;2022-08-21T01:28:42;100217.94;;;26.59;68.25
6567;BME280;3317;43.994;22.878;2022-08-21T01:31:12;100218.50;;;26.61;68.25
6567;BME280;3317;43.994;22.878;2022-08-21T01:33:40;100221.28;;;26.61;68.02
6567;BME280;3317;43.994;22.878;2022-08-21T01:36:08;100227.69;;;26.61;67.63
6567;BME280;3317;43.994;22.878;2022-08-21T01:38:37;100217.94;;;26.64;67.53
6567;BME280;3317;43.994;22.878;2022-08-21T01:41:04;100212.09;;;26.60;67.28
6567;BME280;3317;43.994;22.878;2022-08-21T01:43:31;100224.06;;;26.66;67.62
6567;BME280;3317;43.994;22.878;2022-08-21T01:45:58;100218.78;;;26.64;67.79
6567;BME280;3317;43.994;22.878;2022-08-21T01:48:25;100220.16;;;26.62;68.25
6567;BME280;3317;43.994;22.878;2022-08-21T01:50:52;100229.59;;;26.66;67.61
6567;BME280;3317;43.994;22.878;2022-08-21T01:53:19;100222.94;;;26.62;67.25
6567;BME280;3317;43.994;22.878;2022-08-21T01:55:48;100228.78;;;26.65;65.27
6567;BME280;3317;43.994;22.878;2022-08-21T01:58:14;100231.88;;;26.69;61.88
6567;BME280;3317;43.994;22.878;2022-08-21T02:00:42;100235.75;;;26.68;61.00
6567;BME280;3317;43.994;22.878;2022-08-21T02:03:09;100238.25;;;26.69;59.50
6567;BME280;3317;43.994;22.878;2022-08-21T02:05:36;100180.91;;;26.32;59.16
6567;BME280;3317;43.994;22.878;2022-08-21T02:08:03;100243.78;;;26.69;58.84
6567;BME280;3317;43.994;22.878;2022-08-21T02:10:33;100256.28;;;26.67;59.26
6567;BME280;3317;43.994;22.878;2022-08-21T02:13:01;100260.19;;;26.66;58.94
6567;BME280;3317;43.994;22.878;2022-08-21T02:15:29;100263.50;;;26.63;59.30
6567;BME280;3317;43.994;22.878;2022-08-21T02:17:58;100257.09;;;26.57;59.69
6567;BME280;3317;43.994;22.878;2022-08-21T02:20:27;100264.88;;;26.55;61.42
6567;BME280;3317;43.994;22.878;2022-08-21T02:22:54;100254.31;;;26.52;59.90
6567;BME280;3317;43.994;22.878;2022-08-21T02:25:23;100270.69;;;26.53;60.82
6567;BME280;3317;43.994;22.878;2022-08-21T02:27:52;100265.44;;;26.52;62.45
6567;BME280;3317;43.994;22.878;2022-08-21T02:30:25;100261.81;;;26.51;64.27
6567;BME280;3317;43.994;22.878;2022-08-21T02:32:53;100260.13;;;26.50;65.48
6567;BME280;3317;43.994;22.878;2022-08-21T02:35:20;100254.03;;;26.48;66.88
6567;BME280;3317;43.994;22.878;2022-08-21T02:37:49;100256.25;;;26.51;66.90
6567;BME280;3317;43.994;22.878;2022-08-21T02:40:19;100244.59;;;26.49;67.70
6567;BME280;3317;43.994;22.878;2022-08-21T02:42:46;100185.28;;;26.18;67.52
6567;BME280;3317;43.994;22.878;2022-08-21T02:45:15;100238.47;;;26.52;67.73
6567;BME280;3317;43.994;22.878;2022-08-21T02:47:48;100219.03;;;26.47;67.20
6567;BME280;3317;43.994;22.878;2022-08-21T02:50:19;100232.38;;;26.55;67.46
6567;BME280;3317;43.994;22.878;2022-08-21T02:52:46;100236.84;;;26.56;67.96
6567;BME280;3317;43.994;22.878;2022-08-21T02:55:13;100233.75;;;26.53;68.04
6567;BME280;3317;43.994;22.878;2022-08-21T02:57:40;100236.00;;;26.56;67.94
6567;BME280;3317;43.994;22.878;2022-08-21T03:00:09;100234.03;;;26.51;68.18
6567;BME280;3317;43.994;22.878;2022-08-21T03:02:37;100228.47;;;26.46;67.97
6567;BME280;3317;43.994;22.878;2022-08-21T03:05:09;100232.38;;;26.55;66.25
6567;BME280;3317;43.994;22.878;2022-08-21T03:07:36;100233.75;;;26.58;65.23
6567;BME280;3317;43.994;22.878;2022-08-21T03:10:06;100236.53;;;26.58;65.09
6567;BME280;3317;43.994;22.878;2022-08-21T03:12:34;100238.50;;;26.57;67.07
6567;BME280;3317;43.994;22.878;2022-08-21T03:15:01;100234.88;;;26.57;66.91
6567;BME280;3317;43.994;22.878;2022-08-21T03:17:28;100230.72;;;26.54;67.19
6567;BME280;3317;43.994;22.878;2022-08-21T03:19:56;100240.72;;;26.55;67.52
6567;BME280;3317;43.994;22.878;2022-08-21T03:22:25;100227.66;;;26.51;67.98
6567;BME280;3317;43.994;22.878;2022-08-21T03:24:52;100229.03;;;26.53;66.67
6567;BME280;3317;43.994;22.878;2022-08-21T03:27:19;100228.75;;;26.50;65.77
6567;BME280;3317;43.994;22.878;2022-08-21T03:29:46;100231.81;;;26.53;67.09
6567;BME280;3317;43.994;22.878;2022-08-21T03:32:13;100227.09;;;26.49;67.59
6567;BME280;3317;43.994;22.878;2022-08-21T03:34:40;100222.09;;;26.51;67.95
6567;BME280;3317;43.994;22.878;2022-08-21T03:37:07;100222.34;;;26.49;68.00
6567;BME280;3317;43.994;22.878;2022-08-21T03:39:36;100226.81;;;26.45;68.73
6567;BME280;3317;43.994;22.878;2022-08-21T03:42:04;100223.16;;;26.45;67.94
6567;BME280;3317;43.994;22.878;2022-08-21T03:44:31;100225.66;;;26.41;68.58
6567;BME280;3317;43.994;22.878;2022-08-21T03:46:58;100202.56;;;26.30;68.82
6567;BME280;3317;43.994;22.878;2022-08-21T03:49:26;100180.56;;;26.13;68.67
6567;BME280;3317;43.994;22.878;2022-08-21T03:51:53;100201.72;;;26.24;68.59
6567;BME280;3317;43.994;22.878;2022-08-21T03:54:20;100224.53;;;26.37;68.57
6567;BME280;3317;43.994;22.878;2022-08-21T03:56:48;100220.09;;;26.36;67.78
6567;BME280;3317;43.994;22.878;2022-08-21T03:59:18;100226.50;;;26.36;67.98
6567;BME280;3317;43.994;22.878;2022-08-21T04:01:52;100227.59;;;26.35;68.57
6567;BME280;3317;43.994;22.878;2022-08-21T04:04:19;100223.13;;;26.34;68.57
6567;BME280;3317;43.994;22.878;2022-08-21T04:06:46;100229.53;;;26.35;68.61
6567;BME280;3317;43.994;22.878;2022-08-21T04:09:16;100221.19;;;26.29;68.40
6567;BME280;3317;43.994;22.878;2022-08-21T04:11:43;100214.78;;;26.29;68.77
6567;BME280;3317;43.994;22.878;2022-08-21T04:14:13;100218.44;;;26.29;68.34
6567;BME280;3317;43.994;22.878;2022-08-21T04:16:41;100222.28;;;26.28;68.19
6567;BME280;3317;43.994;22.878;2022-08-21T04:19:08;100220.09;;;26.31;68.26
6567;BME280;3317;43.994;22.878;2022-08-21T04:21:36;100213.94;;;26.28;67.47
6567;BME280;3317;43.994;22.878;2022-08-21T04:24:04;100176.66;;;26.04;67.80
6567;BME280;3317;43.994;22.878;2022-08-21T04:26:31;100215.34;;;26.26;66.66
6567;BME280;3317;43.994;22.878;2022-08-21T04:28:59;100187.75;;;26.04;66.86
6567;BME280;3317;43.994;22.878;2022-08-21T04:31:28;100216.72;;;26.23;68.46
6567;BME280;3317;43.994;22.878;2022-08-21T04:33:55;100220.59;;;26.22;68.52
6567;BME280;3317;43.994;22.878;2022-08-21T04:36:22;100221.72;;;26.21;68.91
6567;BME280;3317;43.994;22.878;2022-08-21T04:38:49;100208.88;;;26.15;67.74
6567;BME280;3317;43.994;22.878;2022-08-21T04:41:16;100228.09;;;26.22;68.02
6567;BME280;3317;43.994;22.878;2022-08-21T04:43:44;100226.41;;;26.21;67.16
6567;BME280;3317;43.994;22.878;2022-08-21T04:46:11;100236.72;;;26.20;69.10
6567;BME280;3317;43.994;22.878;2022-08-21T04:48:39;100230.81;;;26.17;69.20
6567;BME280;3317;43.994;22.878;2022-08-21T04:51:08;100237.81;;;26.19;68.25
6567;BME280;3317;43.994;22.878;2022-08-21T04:53:41;100247.81;;;26.20;68.96
6567;BME280;3317;43.994;22.878;2022-08-21T04:56:15;100243.38;;;26.19;67.80
6567;BME280;3317;43.994;22.878;2022-08-21T04:58:45;100235.50;;;26.11;69.02
6567;BME280;3317;43.994;22.878;2022-08-21T05:01:18;100245.56;;;26.17;68.93
6567;BME280;3317;43.994;22.878;2022-08-21T05:03:48;100239.16;;;26.17;69.15
6567;BME280;3317;43.994;22.878;2022-08-21T05:06:16;100243.59;;;26.18;69.28
6567;BME280;3317;43.994;22.878;2022-08-21T05:08:46;100238.94;;;26.18;69.84
6567;BME280;3317;43.994;22.878;2022-08-21T05:11:14;100245.28;;;26.19;69.07
6567;BME280;3317;43.994;22.878;2022-08-21T05:13:41;100248.63;;;26.21;69.45
6567;BME280;3317;43.994;22.878;2022-08-21T05:16:08;100247.81;;;26.20;69.14
6567;BME280;3317;43.994;22.878;2022-08-21T05:18:35;100253.38;;;26.20;68.88
6567;BME280;3317;43.994;22.878;2022-08-21T05:21:04;100254.47;;;26.19;68.69
6567;BME280;3317;43.994;22.878;2022-08-21T05:23:31;100260.59;;;26.21;67.95
6567;BME280;3317;43.994;22.878;2022-08-21T05:25:58;100267.81;;;26.27;67.89
6567;BME280;3317;43.994;22.878;2022-08-21T05:28:26;100267.25;;;26.25;66.82
6567;BME280;3317;43.994;22.878;2022-08-21T05:30:53;100246.16;;;26.19;67.74
6567;BME280;3317;43.994;22.878;2022-08-21T05:33:20;100265.34;;;26.31;68.35
6567;BME280;3317;43.994;22.878;2022-08-21T05:35:50;100266.75;;;26.34;66.49
6567;BME280;3317;43.994;22.878;2022-08-21T05:38:19;100270.63;;;26.33;67.69
6567;BME280;3317;43.994;22.878;2022-08-21T05:40:46;100275.91;;;26.34;68.24
6567;BME280;3317;43.994;22.878;2022-08-21T05:43:13;100252.25;;;26.21;68.88
6567;BME280;3317;43.994;22.878;2022-08-21T05:45:41;100270.09;;;26.36;68.48
6567;BME280;3317;43.994;22.878;2022-08-21T05:48:13;100263.97;;;26.34;68.19
6567;BME280;3317;43.994;22.878;2022-08-21T05:50:41;100276.75;;;26.35;68.80
6567;BME280;3317;43.994;22.878;2022-08-21T05:53:09;100263.97;;;26.34;68.90
6567;BME280;3317;43.994;22.878;2022-08-21T05:55:38;100272.31;;;26.39;69.52
6567;BME280;3317;43.994;22.878;2022-08-21T05:58:06;100273.97;;;26.40;69.39
6567;BME280;3317;43.994;22.878;2022-08-21T06:00:33;100270.69;;;26.43;69.56
6567;BME280;3317;43.994;22.878;2022-08-21T06:03:00;100270.13;;;26.46;68.38
6567;BME280;3317;43.994;22.878;2022-08-21T06:05:27;100270.69;;;26.48;67.81
6567;BME280;3317;43.994;22.878;2022-08-21T06:07:54;100269.31;;;26.51;68.89
6567;BME280;3317;43.994;22.878;2022-08-21T06:10:21;100266.53;;;26.56;68.73
6567;BME280;3317;43.994;22.878;2022-08-21T06:12:54;100262.09;;;26.60;67.82
6567;BME280;3317;43.994;22.878;2022-08-21T06:15:22;100254.63;;;26.61;67.82
6567;BME280;3317;43.994;22.878;2022-08-21T06:17:48;100268.53;;;26.71;67.25
6567;BME280;3317;43.994;22.878;2022-08-21T06:20:15;100257.16;;;26.78;66.31
6567;BME280;3317;43.994;22.878;2022-08-21T06:22:42;100260.78;;;26.83;65.39
6567;BME280;3317;43.994;22.878;2022-08-21T06:25:10;100273.34;;;26.91;66.09
6567;BME280;3317;43.994;22.878;2022-08-21T06:27:37;100271.97;;;26.94;66.19
6567;BME280;3317;43.994;22.878;2022-08-21T06:30:07;100275.84;;;27.03;65.94
6567;BME280;3317;43.994;22.878;2022-08-21T06:32:35;100273.09;;;27.08;66.00
6567;BME280;3317;43.994;22.878;2022-08-21T06:35:02;100276.44;;;27.21;65.76
6567;BME280;3317;43.994;22.878;2022-08-21T06:37:30;100281.44;;;27.29;65.66
6567;BME280;3317;43.994;22.878;2022-08-21T06:39:57;100267.81;;;27.33;65.52
6567;BME280;3317;43.994;22.878;2022-08-21T06:42:24;100281.44;;;27.50;65.19
6567;BME280;3317;43.994;22.878;2022-08-21T06:44:52;100269.78;;;27.63;64.82
6567;BME280;3317;43.994;22.878;2022-08-21T06:47:23;100271.41;;;27.80;64.08
6567;BME280;3317;43.994;22.878;2022-08-21T06:49:50;100279.72;;;27.95;63.51
6567;BME280;3317;43.994;22.878;2022-08-21T06:52:17;100279.97;;;28.09;62.78
6567;BME280;3317;43.994;22.878;2022-08-21T06:54:44;100278.53;;;28.22;61.28
6567;BME280;3317;43.994;22.878;2022-08-21T06:57:11;100272.34;;;28.41;61.12
6567;BME280;3317;43.994;22.878;2022-08-21T06:59:38;100277.84;;;28.62;61.11
6567;BME280;3317;43.994;22.878;2022-08-21T07:02:05;100278.56;;;28.78;60.33
6567;BME280;3317;43.994;22.878;2022-08-21T07:04:33;100275.44;;;28.95;59.13
6567;BME280;3317;43.994;22.878;2022-08-21T07:07:00;100273.38;;;29.11;58.43
6567;BME280;3317;43.994;22.878;2022-08-21T07:09:27;100258.16;;;29.28;57.51
6567;BME280;3317;43.994;22.878;2022-08-21T07:11:55;100277.78;;;29.52;57.81
6567;BME280;3317;43.994;22.878;2022-08-21T07:14:23;100274.69;;;29.59;55.10
6567;BME280;3317;43.994;22.878;2022-08-21T07:16:50;100273.22;;;29.67;54.77
6567;BME280;3317;43.994;22.878;2022-08-21T07:19:18;100265.53;;;29.53;53.70
6567;BME280;3317;43.994;22.878;2022-08-21T07:21:46;100247.75;;;29.44;54.05
6567;BME280;3317;43.994;22.878;2022-08-21T07:24:14;100270.63;;;29.70;53.86
6567;BME280;3317;43.994;22.878;2022-08-21T07:26:41;100265.81;;;29.81;53.57
6567;BME280;3317;43.994;22.878;2022-08-21T07:29:08;100267.47;;;29.82;53.28
6567;BME280;3317;43.994;22.878;2022-08-21T07:31:35;100261.88;;;29.82;52.34
6567;BME280;3317;43.994;22.878;2022-08-21T07:34:03;100265.72;;;29.86;53.09
6567;BME280;3317;43.994;22.878;2022-08-21T07:36:30;100266.69;;;30.06;53.34
6567;BME280;3317;43.994;22.878;2022-08-21T07:38:58;100262.63;;;30.17;53.59
6567;BME280;3317;43.994;22.878;2022-08-21T07:41:28;100233.09;;;30.11;52.31
6567;BME280;3317;43.994;22.878;2022-08-21T07:43:58;100266.97;;;30.48;51.89
6567;BME280;3317;43.994;22.878;2022-08-21T07:46:26;100254.06;;;30.52;51.54
6567;BME280;3317;43.994;22.878;2022-08-21T07:48:55;100262.28;;;30.68;51.05
6567;BME280;3317;43.994;22.878;2022-08-21T07:51:25;100265.75;;;30.79;50.87
6567;BME280;3317;43.994;22.878;2022-08-21T07:53:55;100261.22;;;30.83;50.80
6567;BME280;3317;43.994;22.878;2022-08-21T07:56:24;100256.59;;;30.92;50.77
6567;BME280;3317;43.994;22.878;2022-08-21T07:58:51;100262.31;;;31.01;50.60
6567;BME280;3317;43.994;22.878;2022-08-21T08:01:19;100262.78;;;31.08;50.34
6567;BME280;3317;43.994;22.878;2022-08-21T08:03:46;100260.22;;;31.12;49.83
6567;BME280;3317;43.994;22.878;2022-08-21T08:06:13;100248.94;;;31.17;49.65
6567;BME280;3317;43.994;22.878;2022-08-21T08:08:42;100255.81;;;31.25;49.52
6567;BME280;3317;43.994;22.878;2022-08-21T08:11:10;100241.53;;;31.26;49.66
6567;BME280;3317;43.994;22.878;2022-08-21T08:13:43;100257.03;;;31.38;49.60
6567;BME280;3317;43.994;22.878;2022-08-21T08:16:10;100244.38;;;31.40;48.72
6567;BME280;3317;43.994;22.878;2022-08-21T08:18:38;100246.78;;;31.47;48.39
6567;BME280;3317;43.994;22.878;2022-08-21T08:21:05;100247.59;;;31.47;47.86
6567;BME280;3317;43.994;22.878;2022-08-21T08:23:33;100249.78;;;31.51;48.28
6567;BME280;3317;43.994;22.878;2022-08-21T08:26:00;100254.44;;;31.55;48.12
6567;BME280;3317;43.994;22.878;2022-08-21T08:28:28;100254.03;;;31.48;47.75
6567;BME280;3317;43.994;22.878;2022-08-21T08:30:58;100249.03;;;31.45;48.22
6567;BME280;3317;43.994;22.878;2022-08-21T08:33:26;100236.34;;;31.33;48.11
6567;BME280;3317;43.994;22.878;2022-08-21T08:35:53;100245.88;;;31.32;47.53
6567;BME280;3317;43.994;22.878;2022-08-21T08:38:21;100251.72;;;31.36;48.12
6567;BME280;3317;43.994;22.878;2022-08-21T08:40:54;100245.25;;;31.22;48.97
6567;BME280;3317;43.994;22.878;2022-08-21T08:43:27;100247.44;;;31.05;49.87
6567;BME280;3317;43.994;22.878;2022-08-21T08:45:59;100240.66;;;30.93;49.17
6567;BME280;3317;43.994;22.878;2022-08-21T08:48:41;100229.38;;;30.79;49.27
6567;BME280;3317;43.994;22.878;2022-08-21T08:51:15;100240.44;;;30.70;49.03
6567;BME280;3317;43.994;22.878;2022-08-21T08:53:49;100238.59;;;30.60;49.92
6567;BME280;3317;43.994;22.878;2022-08-21T08:56:22;100235.31;;;30.53;50.78
6567;BME280;3317;43.994;22.878;2022-08-21T08:58:54;100234.72;;;30.56;50.58
6567;BME280;3317;43.994;22.878;2022-08-21T09:01:24;100237.00;;;30.54;50.63
6567;BME280;3317;43.994;22.878;2022-08-21T09:03:51;100230.47;;;30.39;50.70
6567;BME280;3317;43.994;22.878;2022-08-21T09:06:28;100221.03;;;30.16;51.47
6567;BME280;3317;43.994;22.878;2022-08-21T09:09:06;100223.44;;;30.23;51.29
6567;BME280;3317;43.994;22.878;2022-08-21T09:11:43;100184.81;;;30.05;51.15
6567;BME280;3317;43.994;22.878;2022-08-21T09:14:19;100224.75;;;30.49;50.98
6567;BME280;3317;43.994;22.878;2022-08-21T09:16:57;100220.25;;;30.73;50.67
6567;BME280;3317;43.994;22.878;2022-08-21T09:19:36;100223.34;;;30.90;49.67
6567;BME280;3317;43.994;22.878;2022-08-21T09:22:12;100218.41;;;31.01;49.54
6567;BME280;3317;43.994;22.878;2022-08-21T09:24:49;100207.34;;;31.10;49.72
6567;BME280;3317;43.994;22.878;2022-08-21T09:27:21;100209.22;;;31.15;49.27
6567;BME280;3317;43.994;22.878;2022-08-21T09:29:52;100216.81;;;31.14;48.70
6567;BME280;3317;43.994;22.878;2022-08-21T09:32:24;100203.00;;;31.18;48.64
6567;BME280;3317;43.994;22.878;2022-08-21T09:34:57;100204.25;;;31.45;49.38
6567;BME280;3317;43.994;22.878;2022-08-21T09:37:25;100178.25;;;31.44;48.27
6567;BME280;3317;43.994;22.878;2022-08-21T09:39:55;100187.25;;;31.55;47.30
6567;BME280;3317;43.994;22.878;2022-08-21T09:42:25;100184.78;;;31.68;48.01
6567;BME280;3317;43.994;22.878;2022-08-21T09:45:07;100183.56;;;31.88;47.08
6567;BME280;3317;43.994;22.878;2022-08-21T09:47:37;100184.09;;;31.90;46.96
6567;BME280;3317;43.994;22.878;2022-08-21T09:50:09;100177.53;;;32.09;46.66
6567;BME280;3317;43.994;22.878;2022-08-21T09:52:43;100179.84;;;32.07;46.66
6567;BME280;3317;43.994;22.878;2022-08-21T09:55:16;100171.59;;;32.24;46.21
6567;BME280;3317;43.994;22.878;2022-08-21T09:57:59;100162.03;;;32.39;46.07
6567;BME280;3317;43.994;22.878;2022-08-21T10:00:30;100166.28;;;32.23;45.55
6567;BME280;3317;43.994;22.878;2022-08-21T10:03:17;100168.63;;;32.07;46.47
6567;BME280;3317;43.994;22.878;2022-08-21T10:05:54;100159.66;;;32.19;46.65
6567;BME280;3317;43.994;22.878;2022-08-21T10:08:23;100166.69;;;32.30;46.00
6567;BME280;3317;43.994;22.878;2022-08-21T10:10:54;100166.41;;;32.31;45.38
6567;BME280;3317;43.994;22.878;2022-08-21T10:13:32;100167.78;;;32.20;45.28
6567;BME280;3317;43.994;22.878;2022-08-21T10:16:15;100156.09;;;32.41;45.78
6567;BME280;3317;43.994;22.878;2022-08-21T10:18:50;100159.19;;;32.76;45.52
6567;BME280;3317;43.994;22.878;2022-08-21T10:21:27;100159.88;;;32.96;44.12
6567;BME280;3317;43.994;22.878;2022-08-21T10:24:06;100161.66;;;33.23;43.45
6567;BME280;3317;43.994;22.878;2022-08-21T10:26:42;100150.78;;;33.22;43.22
6567;BME280;3317;43.994;22.878;2022-08-21T10:29:21;100150.84;;;33.08;42.54
6567;BME280;3317;43.994;22.878;2022-08-21T10:31:59;100149.84;;;33.04;43.10
6567;BME280;3317;43.994;22.878;2022-08-21T10:34:39;100152.91;;;32.93;43.49
6567;BME280;3317;43.994;22.878;2022-08-21T10:37:18;100160.31;;;33.21;43.18
6567;BME280;3317;43.994;22.878;2022-08-21T10:39:57;100148.25;;;33.43;42.62
6567;BME280;3317;43.994;22.878;2022-08-21T10:42:33;100155.81;;;33.74;42.63
6567;BME280;3317;43.994;22.878;2022-08-21T10:45:10;100129.06;;;33.85;41.82
6567;BME280;3317;43.994;22.878;2022-08-21T10:47:44;100138.44;;;33.63;40.88
6567;BME280;3317;43.994;22.878;2022-08-21T10:50:19;100138.16;;;33.42;41.50
6567;BME280;3317;43.994;22.878;2022-08-21T10:53:02;100143.78;;;33.42;41.81
6567;BME280;3317;43.994;22.878;2022-08-21T10:55:34;100092.00;;;33.25;42.00
6567;BME280;3317;43.994;22.878;2022-08-21T10:58:08;100136.69;;;33.45;41.53
6567;BME280;3317;43.994;22.878;2022-08-21T11:00:43;100133.03;;;33.84;41.79
6567;BME280;3317;43.994;22.878;2022-08-21T11:03:15;100113.38;;;33.84;40.73
6567;BME280;3317;43.994;22.878;2022-08-21T11:05:48;100104.50;;;34.18;41.28
6567;BME280;3317;43.994;22.878;2022-08-21T11:08:21;100109.31;;;34.26;39.92
6567;BME280;3317;43.994;22.878;2022-08-21T11:10:52;100108.31;;;34.31;39.61
6567;BME280;3317;43.994;22.878;2022-08-21T11:13:26;100091.94;;;34.33;40.01
6567;BME280;3317;43.994;22.878;2022-08-21T11:16:02;100100.38;;;34.06;39.45
6567;BME280;3317;43.994;22.878;2022-08-21T11:18:34;100067.38;;;33.63;40.42
6567;BME280;3317;43.994;22.878;2022-08-21T11:21:18;100085.38;;;33.62;40.27
6567;BME280;3317;43.994;22.878;2022-08-21T11:23:52;100085.63;;;33.42;40.09
6567;BME280;3317;43.994;22.878;2022-08-21T11:26:23;100075.38;;;33.38;40.53
6567;BME280;3317;43.994;22.878;2022-08-21T11:28:58;100080.13;;;33.78;40.33
6567;BME280;3317;43.994;22.878;2022-08-21T11:31:36;100068.41;;;33.93;40.07
6567;BME280;3317;43.994;22.878;2022-08-21T11:34:14;100075.25;;;34.19;39.42
6567;BME280;3317;43.994;22.878;2022-08-21T11:36:53;100064.66;;;34.33;39.58
6567;BME280;3317;43.994;22.878;2022-08-21T11:39:30;100078.69;;;34.68;39.02
6567;BME280;3317;43.994;22.878;2022-08-21T11:42:04;100080.19;;;34.75;38.31
6567;BME280;3317;43.994;22.878;2022-08-21T11:44:41;100075.91;;;34.51;37.59
6567;BME280;3317;43.994;22.878;2022-08-21T11:47:15;100056.38;;;34.19;38.91
6567;BME280;3317;43.994;22.878;2022-08-21T11:50:01;100092.94;;;34.10;38.38
6567;BME280;3317;43.994;22.878;2022-08-21T11:52:35;100079.28;;;33.68;39.56
6567;BME280;3317;43.994;22.878;2022-08-21T11:55:09;100076.63;;;33.63;40.15
6567;BME280;3317;43.994;22.878;2022-08-21T11:57:46;100071.69;;;33.69;40.21
6567;BME280;3317;43.994;22.878;2022-08-21T12:00:21;100093.19;;;33.74;39.34
6567;BME280;3317;43.994;22.878;2022-08-21T12:02:52;100085.53;;;33.48;39.38
6567;BME280;3317;43.994;22.878;2022-08-21T12:05:26;100083.84;;;33.47;39.42
6567;BME280;3317;43.994;22.878;2022-08-21T12:08:05;100091.38;;;33.69;39.77
6567;BME280;3317;43.994;22.878;2022-08-21T12:10:35;100107.41;;;33.86;39.68
6567;BME280;3317;43.994;22.878;2022-08-21T12:13:07;100120.84;;;33.98;38.85
6567;BME280;3317;43.994;22.878;2022-08-21T12:18:05;100107.31;;;34.09;38.43
6567;BME280;3317;43.994;22.878;2022-08-21T12:20:38;100092.09;;;34.10;37.69
6567;BME280;3317;43.994;22.878;2022-08-21T12:23:19;100097.75;;;34.19;37.66
6567;BME280;3317;43.994;22.878;2022-08-21T12:26:01;100096.41;;;34.16;37.56
6567;BME280;3317;43.994;22.878;2022-08-21T12:28:29;100108.31;;;34.13;37.59
6567;BME280;3317;43.994;22.878;2022-08-21T12:30:58;100113.41;;;34.02;37.81
6567;BME280;3317;43.994;22.878;2022-08-21T12:33:31;100124.91;;;33.83;37.87
6567;BME280;3317;43.994;22.878;2022-08-21T12:36:05;100109.78;;;33.52;38.22
6567;BME280;3317;43.994;22.878;2022-08-21T12:38:44;100113.94;;;33.23;38.92
6567;BME280;3317;43.994;22.878;2022-08-21T12:41:18;100137.97;;;33.07;39.27
6567;BME280;3317;43.994;22.878;2022-08-21T12:43:52;100120.13;;;32.80;39.53
6567;BME280;3317;43.994;22.878;2022-08-21T12:46:30;100078.75;;;32.40;40.08
6567;BME280;3317;43.994;22.878;2022-08-21T12:49:02;100102.41;;;32.48;41.03
6567;BME280;3317;43.994;22.878;2022-08-21T12:51:36;100095.28;;;32.27;41.34
6567;BME280;3317;43.994;22.878;2022-08-21T12:54:06;100118.78;;;32.17;41.89
6567;BME280;3317;43.994;22.878;2022-08-21T12:56:34;100111.88;;;32.01;42.54
6567;BME280;3317;43.994;22.878;2022-08-21T12:59:03;100108.38;;;31.81;43.29
6567;BME280;3317;43.994;22.878;2022-08-21T13:01:33;100119.31;;;31.78;43.33
6567;BME280;3317;43.994;22.878;2022-08-21T13:04:04;100119.97;;;31.60;43.67
6567;BME280;3317;43.994;22.878;2022-08-21T13:06:38;100118.00;;;31.47;44.20
6567;BME280;3317;43.994;22.878;2022-08-21T13:09:09;100138.19;;;31.44;44.57
6567;BME280;3317;43.994;22.878;2022-08-21T13:11:39;100130.50;;;31.22;45.48
6567;BME280;3317;43.994;22.878;2022-08-21T13:14:13;100147.16;;;31.13;45.43
6567;BME280;3317;43.994;22.878;2022-08-21T13:16:42;100143.19;;;31.00;46.14
6567;BME280;3317;43.994;22.878;2022-08-21T13:19:15;100136.59;;;30.76;47.66